Stations météo

réclame
Mon MeteoGroup
Glen Ogle, Grande-Bretagne (3148): Température de l'air & dewpoint: 14.11.2018 11:00:00 - 20.11.2018 11:00:00 (GMT)Glen Ogle, Grande-Bretagne (3148): Vitesse du vent & gusts: 14.11.2018 11:00:00 - 20.11.2018 11:00:00 (GMT)Glen Ogle, Grande-Bretagne (3148): Direction du vent: 14.11.2018 11:00:00 - 20.11.2018 11:00:00 (GMT)
Date & Time tt [°C] td [°C] ff [km/h] ff [knt] fx [km/h] fx [knt] dd
20.11.2018 11:00:00 2,0 1,2 28 15 - - E
20.11.2018 10:00:00 1,7 0,6 29 16 - - E
20.11.2018 09:00:00 1,6 0,6 29 16 46 25 E
20.11.2018 08:00:00 1,4 0,8 24 13 46 25 E
20.11.2018 07:00:00 1,6 0,9 26 14 - - E
20.11.2018 06:00:00 1,3 1,3 22 12 - - E
20.11.2018 05:00:00 1,5 1,2 18 10 - - E
20.11.2018 04:00:00 1,3 0,9 21 11 - - E
20.11.2018 03:00:00 1,3 0,5 18 10 - - E
20.11.2018 02:00:00 1,2 0,5 22 12 - - E
20.11.2018 01:00:00 1,3 1,0 21 11 - - ESE
20.11.2018 00:00:00 1,4 1,0 16 9 - - ESE
19.11.2018 23:00:00 1,4 1,3 26 14 46 25 E
19.11.2018 22:00:00 1,9 0,8 24 13 46 25 E
19.11.2018 21:00:00 1,7 1,5 28 15 52 28 E
19.11.2018 20:00:00 1,8 0,9 21 11 - - ESE
19.11.2018 19:00:00 1,7 1,3 15 8 - - SE
19.11.2018 18:00:00 2,4 1,1 18 10 - - E
19.11.2018 17:00:00 2,6 1,3 22 12 - - ESE
19.11.2018 16:00:00 3,0 0,5 18 10 - - SE
19.11.2018 15:00:00 2,7 2,1 22 12 - - ESE
19.11.2018 14:00:00 3,1 1,3 28 15 46 25 ESE
19.11.2018 13:00:00 3,1 1,6 26 14 - - ESE
19.11.2018 12:00:00 3,1 1,6 24 13 - - ESE
19.11.2018 11:00:00 3,3 2,7 28 15 - - ESE
19.11.2018 10:00:00 3,7 3,3 26 14 - - ESE
19.11.2018 09:00:00 3,4 3,4 26 14 - - ESE
19.11.2018 08:00:00 3,6 3,6 15 8 - - ESE
19.11.2018 07:00:00 3,5 3,5 13 7 - - ESE
19.11.2018 06:00:00 3,3 2,7 15 8 - - ESE
19.11.2018 05:00:00 2,7 2,0 9 5 - - E
19.11.2018 04:00:00 2,9 1,9 13 7 - - ESE
19.11.2018 03:00:00 2,6 1,9 11 6 - - E
19.11.2018 02:00:00 2,0 0,9 16 9 - - E
19.11.2018 01:00:00 2,3 1,8 22 12 - - E
19.11.2018 00:00:00 2,5 1,8 13 7 - - E
18.11.2018 23:00:00 2,4 1,8 18 10 - - E
18.11.2018 22:00:00 2,4 1,8 18 10 - - E
18.11.2018 21:00:00 2,5 2,5 11 6 - - E
18.11.2018 20:00:00 2,8 2,7 18 10 - - ESE
18.11.2018 19:00:00 3,0 2,8 28 15 - - ESE
18.11.2018 18:00:00 3,5 3,1 29 16 - - ESE
18.11.2018 17:00:00 3,5 3,5 34 18 - - E
18.11.2018 16:00:00 3,9 3,5 21 11 - - E
18.11.2018 15:00:00 4,3 3,6 26 14 - - ESE
18.11.2018 14:00:00 5,1 -0,3 8 4 - - SSE
18.11.2018 13:00:00 4,4 1,5 31 17 - - ESE
18.11.2018 12:00:00 4,1 1,0 29 16 - - ESE
18.11.2018 11:00:00 3,9 2,7 24 13 - - ESE
18.11.2018 10:00:00 3,6 2,4 31 17 - - E
18.11.2018 09:00:00 3,4 3,0 28 15 - - E
18.11.2018 08:00:00 3,5 3,3 39 21 55 30 ESE
18.11.2018 07:00:00 3,3 3,3 42 23 57 31 ESE
18.11.2018 06:00:00 3,4 3,4 41 22 54 29 ESE
18.11.2018 05:00:00 3,4 3,4 39 21 55 30 ESE
18.11.2018 04:00:00 3,6 3,4 34 18 48 26 ESE
18.11.2018 03:00:00 3,7 3,3 37 20 54 29 ESE
18.11.2018 02:00:00 3,7 3,4 24 13 59 32 ESE
18.11.2018 01:00:00 3,7 3,7 35 19 55 30 SE
18.11.2018 00:00:00 3,8 3,7 21 11 - - SE
17.11.2018 23:00:00 3,8 3,7 22 12 - - SSE
17.11.2018 22:00:00 3,8 3,8 21 11 48 26 SE
17.11.2018 21:00:00 3,9 3,9 21 11 48 26 SE
17.11.2018 20:00:00 3,7 3,7 35 19 48 26 SE
17.11.2018 19:00:00 3,7 3,5 31 17 - - ESE
17.11.2018 18:00:00 3,8 3,4 21 11 55 30 SE
17.11.2018 17:00:00 3,9 3,6 44 24 55 30 ESE
17.11.2018 16:00:00 3,8 3,8 35 19 50 27 ESE
17.11.2018 15:00:00 3,9 3,9 35 19 48 26 ESE
17.11.2018 14:00:00 4,1 4,1 18 10 - - SE
17.11.2018 13:00:00 4,0 3,8 15 8 46 25 ESE
17.11.2018 12:00:00 3,6 3,3 26 14 48 26 ESE
17.11.2018 11:00:00 3,4 2,4 41 22 54 29 ESE
17.11.2018 10:00:00 3,3 3,0 37 20 48 26 ESE
17.11.2018 09:00:00 3,5 3,3 37 20 52 28 ESE
17.11.2018 08:00:00 3,6 3,2 29 16 50 27 ESE
17.11.2018 07:00:00 3,6 3,4 26 14 57 31 SE
17.11.2018 06:00:00 3,6 3,3 37 20 55 30 E
17.11.2018 05:00:00 4,0 4,0 15 8 48 26 S
17.11.2018 04:00:00 5,2 5,2 24 13 - - E
17.11.2018 03:00:00 6,1 6,1 18 10 - - ESE
17.11.2018 02:00:00 6,5 6,5 22 12 - - ESE
17.11.2018 01:00:00 7,0 7,0 13 7 - - ESE
17.11.2018 00:00:00 7,1 7,1 4 2 - - N
16.11.2018 23:00:00 7,0 7,0 8 4 - - ESE
16.11.2018 22:00:00 7,5 7,5 24 13 - - E
16.11.2018 21:00:00 7,7 7,7 29 16 - - ESE
16.11.2018 20:00:00 8,0 8,0 21 11 - - SE
16.11.2018 19:00:00 8,6 8,3 11 6 - - SE
16.11.2018 18:00:00 8,1 8,1 21 11 - - SSE
16.11.2018 17:00:00 8,5 8,5 28 15 - - SSE
16.11.2018 16:00:00 8,6 8,5 31 17 46 25 SSE
16.11.2018 15:00:00 8,9 8,8 39 21 57 31 SSE
16.11.2018 14:00:00 8,5 8,5 34 18 50 27 SSE
16.11.2018 13:00:00 8,1 8,1 29 16 48 26 SE
16.11.2018 12:00:00 7,7 7,7 29 16 48 26 SSE
16.11.2018 11:00:00 7,2 7,1 28 15 - - SSE
16.11.2018 10:00:00 6,7 6,7 29 16 - - SE
16.11.2018 09:00:00 - - - - - - -
16.11.2018 08:00:00 - - - - - - -
16.11.2018 07:00:00 5,2 5,2 21 11 - - SSE
16.11.2018 06:00:00 4,8 4,8 18 10 - - SSE
16.11.2018 05:00:00 4,7 4,7 22 12 - - S
16.11.2018 04:00:00 4,8 4,7 22 12 - - S
16.11.2018 03:00:00 5,3 4,6 24 13 - - S
16.11.2018 02:00:00 5,6 4,1 13 7 - - SSW
16.11.2018 01:00:00 5,8 4,0 26 14 - - SSW
16.11.2018 00:00:00 6,0 4,6 22 12 55 30 SSW
15.11.2018 23:00:00 6,4 4,7 35 19 55 30 SSW
15.11.2018 22:00:00 6,0 5,6 26 14 61 33 SSW
15.11.2018 21:00:00 6,4 5,7 29 16 54 29 SSW
15.11.2018 20:00:00 6,8 6,0 31 17 61 33 SSW
15.11.2018 19:00:00 6,9 6,8 35 19 72 39 SW
15.11.2018 18:00:00 8,6 8,5 63 34 100 54 S
15.11.2018 17:00:00 8,2 8,2 55 30 80 43 S
15.11.2018 16:00:00 7,9 7,8 54 29 93 50 S
15.11.2018 15:00:00 7,3 6,9 65 35 89 48 S
15.11.2018 14:00:00 7,3 5,7 42 23 63 34 S
15.11.2018 13:00:00 7,7 6,9 42 23 67 36 S
15.11.2018 12:00:00 7,2 7,1 57 31 78 42 S
15.11.2018 11:00:00 7,4 7,4 50 27 70 38 SSE
15.11.2018 10:00:00 7,3 7,2 55 30 72 39 S
15.11.2018 09:00:00 7,5 7,5 48 26 76 41 S
15.11.2018 08:00:00 7,9 7,9 42 23 72 39 S
15.11.2018 07:00:00 8,3 8,3 50 27 70 38 S
15.11.2018 06:00:00 8,5 8,5 50 27 72 39 S
15.11.2018 05:00:00 8,7 8,7 50 27 70 38 S
15.11.2018 04:00:00 8,7 8,6 50 27 74 40 S
15.11.2018 03:00:00 8,7 8,7 54 29 76 41 S
15.11.2018 02:00:00 8,7 8,7 44 24 80 43 S
15.11.2018 01:00:00 8,7 8,7 50 27 85 46 S
15.11.2018 00:00:00 8,8 8,8 65 35 91 49 S
14.11.2018 23:00:00 9,0 8,9 55 30 85 46 S
14.11.2018 22:00:00 9,0 9,0 50 27 72 39 S
14.11.2018 21:00:00 9,2 9,1 50 27 72 39 S
14.11.2018 20:00:00 9,4 9,4 41 22 65 35 SSW
14.11.2018 19:00:00 9,5 9,5 44 24 76 41 S
14.11.2018 18:00:00 9,5 9,4 52 28 72 39 S
14.11.2018 17:00:00 9,6 9,5 48 26 68 37 S
14.11.2018 16:00:00 9,7 9,6 50 27 85 46 S
14.11.2018 15:00:00 9,7 9,7 55 30 81 44 S
14.11.2018 14:00:00 9,8 9,8 61 33 89 48 S
14.11.2018 13:00:00 9,8 9,8 61 33 83 45 S
14.11.2018 12:00:00 10,0 10,0 55 30 83 45 S
14.11.2018 11:00:00 9,8 9,8 59 32 83 45 S

tt = Température de l'air
td = dewpoint
ff = Vitesse du vent
fx = gusts
dd = Direction du vent

stations d'obs. à proximité